Time;durP1;ratioP1;P1;durP2;ratioP2;P2;SDS_P1;SDS_P2;PMS_P1;PMS_P2;Temp;Humidity;BMP_temperature;BMP_pressure;BME280_temperature;BME280_humidity;BME280_pressure;Samples;Min_cycle;Max_cycle;Signal;HPM_P1;HPM_P2
2022/06/23 00:00:03;;;;;;;7.65;3.83;;;19.70;75.60;;;;;;4993695;28;20057;-84
2022/06/23 00:02:32;;;;;;;10.10;3.67;;;19.70;75.50;;;;;;4992128;28;20399;-83
2022/06/23 00:05:07;;;;;;;9.85;3.72;;;19.70;75.80;;;;;;4991851;28;20045;-83
2022/06/23 00:07:35;;;;;;;9.88;4.00;;;19.60;75.70;;;;;;5007992;28;20520;-84
2022/06/23 00:10:26;;;;;;;7.85;3.28;;;19.60;75.90;;;;;;5011936;28;20019;-84
2022/06/23 00:12:52;;;;;;;8.70;3.78;;;19.60;76.40;;;;;;4995709;28;20113;-83
2022/06/23 00:15:27;;;;;;;9.30;3.75;;;19.50;76.00;;;;;;4997756;28;20046;-83
2022/06/23 00:18:05;;;;;;;8.88;3.92;;;19.50;76.10;;;;;;5005413;28;20018;-83
2022/06/23 00:20:44;;;;;;;10.95;4.63;;;19.50;76.30;;;;;;4995674;28;20029;-84
2022/06/23 00:23:22;;;;;;;7.15;3.80;;;19.40;76.50;;;;;;4997195;28;20411;-84
2022/06/23 00:26:10;;;;;;;11.80;4.25;;;19.40;76.60;;;;;;4995684;28;20018;-83
2022/06/23 00:29:10;;;;;;;8.43;4.10;;;19.30;76.60;;;;;;4997016;28;20022;-83
2022/06/23 00:31:54;;;;;;;8.77;4.10;;;19.30;76.70;;;;;;4990594;28;20466;-83
2022/06/23 00:34:41;;;;;;;8.07;4.10;;;19.30;76.60;;;;;;4995422;28;20509;-83
2022/06/23 00:37:14;;;;;;;8.20;4.00;;;19.30;76.90;;;;;;4996955;28;20026;-82
2022/06/23 00:39:57;;;;;;;9.50;4.10;;;19.20;77.10;;;;;;4999739;28;20022;-83
2022/06/23 00:42:33;;;;;;;8.95;3.88;;;19.20;77.70;;;;;;5010980;28;20050;-82
2022/06/23 00:45:02;;;;;;;9.05;3.78;;;19.20;77.60;;;;;;4996262;28;20023;-84
2022/06/23 00:47:45;;;;;;;12.23;4.70;;;19.10;77.60;;;;;;4996427;28;20030;-84
2022/06/23 00:50:35;;;;;;;8.23;3.90;;;19.10;77.80;;;;;;4995448;28;20020;-84
2022/06/23 00:53:00;;;;;;;9.15;4.30;;;19.10;78.10;;;;;;4995136;28;20319;-84
2022/06/23 00:55:39;;;;;;;10.20;4.68;;;19.10;78.10;;;;;;4995023;28;20038;-84
2022/06/23 00:58:26;;;;;;;9.55;4.85;;;19.00;78.60;;;;;;4995217;28;20164;-84
2022/06/23 01:00:57;;;;;;;8.57;4.18;;;18.90;78.90;;;;;;4994848;28;20022;-84
2022/06/23 01:03:39;;;;;;;8.85;4.18;;;19.00;78.90;;;;;;4995456;28;20041;-83
2022/06/23 01:06:05;;;;;;;10.45;4.45;;;18.90;79.00;;;;;;4996441;28;20029;-86
2022/06/23 01:09:02;;;;;;;10.85;3.92;;;18.80;79.00;;;;;;4995330;28;20026;-85
2022/06/23 01:11:46;;;;;;;14.68;4.57;;;18.80;79.20;;;;;;4982613;28;20104;-85
2022/06/23 01:14:30;;;;;;;8.70;3.90;;;18.80;79.20;;;;;;5014546;28;20057;-85
2022/06/23 01:17:07;;;;;;;8.13;4.57;;;18.80;79.30;;;;;;5014913;28;20088;-86
2022/06/23 01:19:39;;;;;;;7.90;4.47;;;18.70;79.70;;;;;;5013456;28;20010;-85
2022/06/23 01:22:16;;;;;;;10.40;4.53;;;18.70;79.60;;;;;;5014683;28;20021;-85
2022/06/23 01:24:57;;;;;;;10.82;4.80;;;18.70;79.60;;;;;;5014550;28;20033;-85
2022/06/23 01:27:41;;;;;;;9.57;4.85;;;18.70;79.70;;;;;;5014211;28;20168;-85
2022/06/23 01:30:10;;;;;;;8.60;4.30;;;18.70;79.70;;;;;;5013929;28;20022;-84
2022/06/23 01:32:42;;;;;;;9.90;4.20;;;18.60;79.90;;;;;;5013932;28;20018;-85
2022/06/23 01:35:16;;;;;;;12.68;4.90;;;18.50;80.10;;;;;;5013892;28;20029;-85
2022/06/23 01:37:51;;;;;;;10.68;4.80;;;18.60;80.50;;;;;;5015159;28;20029;-84
2022/06/23 01:40:46;;;;;;;11.30;5.15;;;18.50;80.30;;;;;;5014755;28;20022;-83
2022/06/23 01:43:42;;;;;;;11.90;5.13;;;18.50;80.40;;;;;;5006847;28;20026;-84
2022/06/23 01:46:25;;;;;;;11.07;5.38;;;18.40;80.40;;;;;;5014006;28;20026;-83
2022/06/23 01:49:01;;;;;;;11.18;5.05;;;18.40;80.60;;;;;;5013706;28;20398;-83
2022/06/23 01:51:50;;;;;;;10.13;4.90;;;18.40;80.60;;;;;;5013942;28;20049;-83
2022/06/23 01:54:22;;;;;;;12.23;5.38;;;18.40;80.70;;;;;;5013575;28;20053;-83
2022/06/23 01:57:22;;;;;;;9.65;4.25;;;18.30;81.00;;;;;;5014773;28;20424;-83
2022/06/23 01:59:58;;;;;;;11.88;5.40;;;18.30;81.00;;;;;;5013828;28;20018;-83
2022/06/23 02:02:41;;;;;;;13.02;4.88;;;18.30;81.10;;;;;;5014899;28;20458;-83
2022/06/23 02:05:34;;;;;;;8.57;4.72;;;18.30;81.20;;;;;;5013437;28;20084;-83
2022/06/23 02:08:29;;;;;;;8.75;5.20;;;18.20;81.20;;;;;;5014742;28;20097;-83
2022/06/23 02:11:06;;;;;;;;;;;18.20;81.30;;;;;;5010357;28;20033;-83
2022/06/23 02:13:55;;;;;;;8.73;4.22;;;18.10;81.40;;;;;;5010007;28;19901;-83
2022/06/23 02:16:33;;;;;;;10.13;4.88;;;18.10;81.20;;;;;;4993274;28;20050;-83
2022/06/23 02:19:11;;;;;;;11.00;5.25;;;18.10;81.50;;;;;;4992995;28;20470;-83
2022/06/23 02:21:48;;;;;;;11.75;5.07;;;18.10;81.70;;;;;;5008458;28;20464;-83
2022/06/23 02:24:55;;;;;;;9.75;4.65;;;18.00;81.80;;;;;;4993690;28;20014;-83
2022/06/23 02:27:32;;;;;;;11.63;5.60;;;18.00;82.10;;;;;;4982162;28;20034;-84
2022/06/23 02:30:16;;;;;;;10.27;5.85;;;18.00;81.90;;;;;;4993714;28;20018;-83
2022/06/23 02:33:06;;;;;;;8.98;4.25;;;17.90;82.00;;;;;;4994370;28;20034;-83
2022/06/23 02:35:58;;;;;;;10.15;5.35;;;17.90;82.10;;;;;;4994490;28;20112;-83
2022/06/23 02:38:39;;;;;;;14.43;5.05;;;17.90;82.20;;;;;;4993535;28;20018;-83
2022/06/23 02:41:08;;;;;;;10.95;5.35;;;17.90;82.20;;;;;;4994688;28;20041;-84
2022/06/23 02:43:37;;;;;;;11.43;5.43;;;17.90;82.30;;;;;;4993257;28;20026;-83
2022/06/23 02:46:06;;;;;;;9.00;4.85;;;17.80;82.30;;;;;;4993291;28;20027;-83
2022/06/23 02:48:46;;;;;;;9.02;5.20;;;17.80;82.40;;;;;;4993148;28;20022;-83
2022/06/23 02:51:18;;;;;;;10.80;4.78;;;17.80;82.40;;;;;;4992902;28;20023;-83
2022/06/23 02:54:22;;;;;;;11.57;5.55;;;17.80;82.50;;;;;;4993066;28;20113;-83
2022/06/23 02:57:05;;;;;;;10.90;5.10;;;17.80;82.60;;;;;;4992994;28;20042;-83
2022/06/23 02:59:41;;;;;;;10.60;4.68;;;17.80;82.50;;;;;;4992937;28;20026;-84
2022/06/23 03:02:26;;;;;;;10.10;5.00;;;17.70;82.40;;;;;;4993186;28;20059;-83
2022/06/23 03:04:57;;;;;;;10.27;4.97;;;17.70;82.60;;;;;;4994398;28;20022;-84
2022/06/23 03:07:57;;;;;;;7.38;4.35;;;17.70;82.70;;;;;;4994058;28;20026;-84
2022/06/23 03:11:02;;;;;;;8.73;4.60;;;17.70;82.80;;;;;;4995744;28;20022;-84
2022/06/23 03:13:55;;;;;;;12.75;5.82;;;17.60;82.80;;;;;;5009065;28;20042;-84
2022/06/23 03:16:36;;;;;;;9.70;4.57;;;17.70;82.80;;;;;;4993512;28;20046;-85
2022/06/23 03:19:04;;;;;;;9.65;5.00;;;17.60;82.80;;;;;;4995160;28;20022;-85
2022/06/23 03:21:43;;;;;;;10.05;5.47;;;17.60;82.90;;;;;;4995675;28;20462;-85
2022/06/23 03:24:51;;;;;;;15.27;5.35;;;17.60;83.10;;;;;;4994304;28;20022;-85
2022/06/23 03:27:42;;;;;;;10.20;5.60;;;17.60;83.20;;;;;;4994808;28;20053;-85
2022/06/23 03:30:34;;;;;;;11.75;5.07;;;17.60;83.10;;;;;;4993749;28;20474;-85
2022/06/23 03:33:16;;;;;;;12.32;4.97;;;17.60;83.10;;;;;;4993084;28;20414;-84
2022/06/23 03:35:49;;;;;;;8.90;4.97;;;17.60;83.10;;;;;;4994315;28;20031;-85
2022/06/23 03:41:36;;;;;;;9.73;5.45;;;17.50;83.20;;;;;;4993079;28;20026;-84
2022/06/23 03:44:21;;;;;;;10.35;4.95;;;17.50;83.60;;;;;;4996867;28;20034;-84
2022/06/23 03:46:51;;;;;;;10.15;5.72;;;17.50;83.60;;;;;;5012934;28;20038;-84
2022/06/23 03:49:47;;;;;;;9.80;4.53;;;17.50;83.60;;;;;;4996608;28;20102;-84
2022/06/23 03:52:29;;;;;;;12.88;5.35;;;17.50;83.80;;;;;;4996384;28;20469;-84
2022/06/23 03:55:13;;;;;;;13.18;5.13;;;17.50;83.80;;;;;;4996229;28;20124;-84
2022/06/23 03:57:53;;;;;;;11.65;5.05;;;17.50;84.00;;;;;;4996270;28;20029;-84
2022/06/23 04:00:36;;;;;;;10.63;4.78;;;17.50;84.00;;;;;;4996367;28;20451;-84
2022/06/23 04:03:18;;;;;;;9.45;4.47;;;17.40;84.10;;;;;;4997701;28;20019;-84
2022/06/23 04:06:12;;;;;;;9.90;5.05;;;17.50;84.20;;;;;;4996101;28;20034;-84
2022/06/23 04:08:46;;;;;;;14.30;6.37;;;17.50;84.10;;;;;;4996374;28;20019;-84
2022/06/23 04:14:05;;;;;;;9.38;4.55;;;17.50;84.10;;;;;;4997456;28;20042;-85
2022/06/23 04:16:32;;;;;;;13.55;5.07;;;17.50;83.90;;;;;;4979581;28;20049;-84
2022/06/23 04:18:58;;;;;;;9.70;5.18;;;17.60;84.00;;;;;;4995742;28;20475;-83
2022/06/23 04:21:30;;;;;;;9.55;4.88;;;17.60;83.90;;;;;;4979960;28;20053;-84
2022/06/23 04:24:00;;;;;;;11.15;5.00;;;17.60;83.90;;;;;;4979698;28;20462;-84
2022/06/23 04:26:42;;;;;;;9.20;4.88;;;17.60;84.00;;;;;;4995995;28;20046;-85
2022/06/23 04:29:25;;;;;;;9.38;5.35;;;17.60;84.00;;;;;;4995778;28;20030;-83
2022/06/23 04:32:04;;;;;;;10.50;5.15;;;17.60;84.00;;;;;;4995800;28;20370;-83
2022/06/23 04:34:35;;;;;;;9.23;5.07;;;17.70;84.00;;;;;;4997121;28;20034;-80
2022/06/23 04:37:01;;;;;;;7.50;4.60;;;17.70;83.90;;;;;;4996778;28;20458;-79
2022/06/23 04:39:38;;;;;;;10.40;5.30;;;17.70;83.90;;;;;;4996433;28;20053;-80
2022/06/23 04:42:14;;;;;;;8.82;4.60;;;17.70;83.80;;;;;;4995554;28;20018;-77
2022/06/23 04:44:47;;;;;;;10.60;4.72;;;17.80;83.80;;;;;;4999488;28;20080;-79
2022/06/23 04:47:20;;;;;;;9.68;5.63;;;17.80;83.70;;;;;;5014611;28;20061;-80
2022/06/23 04:50:01;;;;;;;7.28;4.03;;;17.80;83.50;;;;;;5015992;28;20462;-79
2022/06/23 04:52:43;;;;;;;7.68;4.72;;;17.80;83.60;;;;;;5014532;28;20025;-80
2022/06/23 04:55:17;;;;;;;11.55;5.03;;;17.80;83.40;;;;;;5014623;28;20030;-80
2022/06/23 04:58:00;;;;;;;9.88;5.05;;;17.90;83.40;;;;;;5015070;28;20014;-79
2022/06/23 05:00:36;;;;;;;14.02;4.53;;;17.90;83.30;;;;;;5005190;28;20040;-79
2022/06/23 05:03:15;;;;;;;8.60;4.15;;;18.00;83.20;;;;;;5000980;28;20022;-80
2022/06/23 05:05:41;;;;;;;11.93;4.40;;;18.00;83.10;;;;;;5014715;28;20018;-80
2022/06/23 05:08:17;;;;;;;10.10;4.97;;;18.00;82.90;;;;;;5015696;28;20490;-80
2022/06/23 05:10:52;;;;;;;12.50;4.47;;;18.10;82.80;;;;;;5003177;28;20022;-80
2022/06/23 05:13:24;;;;;;;9.18;4.80;;;18.10;82.80;;;;;;4995044;28;20018;-80
2022/06/23 05:15:50;;;;;;;13.25;4.40;;;18.10;82.70;;;;;;5011987;28;20556;-80
2022/06/23 05:18:25;;;;;;;12.13;5.30;;;18.20;82.70;;;;;;5010203;28;20041;-80
2022/06/23 05:20:59;;;;;;;16.05;5.03;;;18.20;82.60;;;;;;5011538;28;20029;-80
2022/06/23 05:23:35;;;;;;;7.70;4.22;;;18.20;82.40;;;;;;5013538;28;20017;-80
2022/06/23 05:26:26;;;;;;;12.20;5.40;;;18.30;82.20;;;;;;5015289;28;20454;-80
2022/06/23 05:28:57;;;;;;;9.57;4.95;;;18.30;82.10;;;;;;5010975;28;20022;-80
2022/06/23 05:31:31;;;;;;;9.13;4.50;;;18.30;82.00;;;;;;5006788;28;20105;-80
2022/06/23 05:34:04;;;;;;;10.43;4.53;;;18.30;81.90;;;;;;5005918;28;20022;-80
2022/06/23 05:36:36;;;;;;;9.60;4.67;;;18.30;81.80;;;;;;4995758;28;20047;-80
2022/06/23 05:39:15;;;;;;;8.30;4.47;;;18.40;81.70;;;;;;4994319;28;20285;-80
2022/06/23 05:41:47;;;;;;;10.13;4.60;;;18.40;81.60;;;;;;4994041;28;20018;-80
2022/06/23 05:44:22;;;;;;;9.38;5.25;;;18.40;81.60;;;;;;4994229;28;20390;-80
2022/06/23 05:46:50;;;;;;;9.60;4.47;;;18.40;81.50;;;;;;4977728;28;20416;-81
2022/06/23 05:49:20;;;;;;;8.38;4.85;;;18.50;81.50;;;;;;4993505;28;20030;-80
2022/06/23 05:51:55;;;;;;;15.00;5.22;;;18.50;81.40;;;;;;5005149;28;20462;-80
2022/06/23 05:54:30;;;;;;;8.50;4.10;;;18.60;81.40;;;;;;5014412;28;20022;-83
2022/06/23 05:57:24;;;;;;;10.13;4.80;;;18.60;81.10;;;;;;5002958;28;20018;-83
2022/06/23 06:00:00;;;;;;;7.95;4.03;;;18.60;81.00;;;;;;5011784;28;20109;-84
2022/06/23 06:02:32;;;;;;;12.20;4.53;;;18.60;81.00;;;;;;5008081;28;20123;-84
2022/06/23 06:05:00;;;;;;;9.10;4.93;;;18.60;81.00;;;;;;5013819;28;20057;-84
2022/06/23 06:07:32;;;;;;;8.93;4.82;;;18.70;81.10;;;;;;4995779;28;20018;-84
2022/06/23 06:09:58;;;;;;;9.82;4.90;;;18.70;81.00;;;;;;5016707;28;20100;-84
2022/06/23 06:12:34;;;;;;;10.10;4.47;;;18.70;81.00;;;;;;4999803;28;20084;-84
2022/06/23 06:15:10;;;;;;;9.48;4.18;;;18.80;81.00;;;;;;5017301;28;20038;-84
2022/06/23 06:17:37;;;;;;;7.68;4.03;;;18.80;80.90;;;;;;5016420;28;20034;-84
2022/06/23 06:20:06;;;;;;;5.80;3.67;;;18.80;80.80;;;;;;5013550;28;20101;-84
2022/06/23 06:22:57;;;;;;;15.23;4.82;;;18.90;80.80;;;;;;5014502;28;20041;-85
2022/06/23 06:25:24;;;;;;;8.82;4.30;;;18.90;80.70;;;;;;5012553;28;20018;-84
2022/06/23 06:27:52;;;;;;;10.02;4.50;;;19.00;80.60;;;;;;5013408;28;20581;-84
2022/06/23 06:30:23;;;;;;;6.32;3.85;;;19.00;80.50;;;;;;4995982;28;20120;-84
2022/06/23 06:32:49;;;;;;;7.53;4.28;;;19.10;80.40;;;;;;5013385;28;20030;-84
2022/06/23 06:35:24;;;;;;;8.00;4.22;;;19.10;80.20;;;;;;5014257;28;20383;-84
2022/06/23 06:38:09;;;;;;;13.90;3.95;;;19.20;80.20;;;;;;5012284;28;20022;-84
2022/06/23 06:40:38;;;;;;;8.25;3.80;;;19.30;80.20;;;;;;5013049;28;20030;-85
2022/06/23 06:43:08;;;;;;;10.23;3.97;;;19.30;80.10;;;;;;5013418;28;20014;-85
2022/06/23 06:45:36;;;;;;;8.80;4.57;;;19.40;80.10;;;;;;5014417;28;20277;-84
2022/06/23 06:48:03;;;;;;;8.93;4.40;;;19.40;80.00;;;;;;5012536;28;20466;-85
2022/06/23 06:50:38;;;;;;;7.30;3.65;;;19.50;79.80;;;;;;5012496;28;20021;-84
2022/06/23 06:53:12;;;;;;;10.13;4.10;;;19.50;79.50;;;;;;5007804;28;20362;-84
2022/06/23 06:55:53;;;;;;;10.48;4.20;;;19.60;79.40;;;;;;4993180;28;20074;-85
2022/06/23 06:58:37;;;;;;;6.30;3.40;;;19.60;79.20;;;;;;4992877;28;20022;-85
2022/06/23 07:01:10;;;;;;;9.52;3.90;;;19.70;79.10;;;;;;4992111;28;20116;-84
2022/06/23 07:03:38;;;;;;;6.80;3.30;;;19.70;79.10;;;;;;4992632;28;20049;-84
2022/06/23 07:06:17;;;;;;;7.47;3.45;;;19.80;79.00;;;;;;4992842;28;20031;-84
2022/06/23 07:09:01;;;;;;;6.70;3.00;;;19.80;78.90;;;;;;4992935;28;20034;-84
2022/06/23 07:11:26;;;;;;;12.13;4.03;;;19.90;78.80;;;;;;4992959;28;20451;-82
2022/06/23 07:14:05;;;;;;;7.50;4.15;;;19.90;78.70;;;;;;4993783;28;20022;-84
2022/06/23 07:16:45;;;;;;;8.77;4.05;;;20.00;78.50;;;;;;4999326;28;20086;-83
2022/06/23 07:19:17;;;;;;;9.02;4.10;;;20.10;78.20;;;;;;5002075;28;20041;-83
2022/06/23 07:21:52;;;;;;;7.25;3.60;;;20.10;77.90;;;;;;5014010;28;20018;-83
2022/06/23 07:24:33;;;;;;;9.30;3.60;;;20.20;77.80;;;;;;5012664;28;20462;-84
2022/06/23 07:27:04;;;;;;;7.80;3.20;;;20.30;77.70;;;;;;5012064;28;20034;-83
2022/06/23 07:29:41;;;;;;;6.88;3.08;;;20.40;77.60;;;;;;5013317;28;20347;-84
2022/06/23 07:32:16;;;;;;;8.32;3.10;;;20.40;77.40;;;;;;5012385;28;20029;-84
2022/06/23 07:35:07;;;;;;;7.40;3.42;;;20.50;77.30;;;;;;5012096;28;20362;-83
2022/06/23 07:37:43;;;;;;;8.27;3.90;;;20.60;77.00;;;;;;5002469;28;20465;-84
2022/06/23 07:40:11;;;;;;;7.28;3.97;;;20.60;76.80;;;;;;5010954;28;20022;-84
2022/06/23 07:43:05;;;;;;;7.82;3.42;;;20.70;77.30;;;;;;5011516;28;20098;-83
2022/06/23 07:45:40;;;;;;;8.10;3.08;;;20.80;76.30;;;;;;5012098;28;20454;-84
2022/06/23 07:48:06;;;;;;;8.90;3.33;;;20.90;76.10;;;;;;5012598;28;20409;-84
2022/06/23 07:50:31;;;;;;;8.63;3.13;;;20.90;75.90;;;;;;5011514;28;20072;-85
2022/06/23 07:52:58;;;;;;;6.35;3.58;;;21.00;75.90;;;;;;5011859;28;20021;-85
2022/06/23 07:55:29;;;;;;;8.35;3.25;;;21.10;76.30;;;;;;5011628;28;20044;-85
2022/06/23 07:57:55;;;;;;;8.18;3.28;;;21.20;75.60;;;;;;5011548;28;20025;-85
2022/06/23 08:00:23;;;;;;;8.77;3.42;;;21.20;75.50;;;;;;5011030;28;20064;-85
2022/06/23 08:03:03;;;;;;;8.30;4.05;;;21.30;75.30;;;;;;5012734;28;20037;-84
2022/06/23 08:05:45;;;;;;;6.38;2.88;;;21.40;75.10;;;;;;5011601;28;20152;-85
2022/06/23 08:08:16;;;;;;;6.65;3.22;;;21.50;74.90;;;;;;5011190;28;20184;-84
2022/06/23 08:10:42;;;;;;;7.60;3.40;;;21.50;74.60;;;;;;5012695;28;20026;-85
2022/06/23 08:13:14;;;;;;;6.85;3.55;;;21.60;74.50;;;;;;4994578;28;20026;-85
2022/06/23 08:18:51;;;;;;;4.95;2.90;;;21.80;75.00;;;;;;5004276;28;20029;-84
2022/06/23 08:21:29;;;;;;;8.35;3.45;;;21.90;74.10;;;;;;5011049;28;20112;-84
2022/06/23 08:24:14;;;;;;;5.97;3.00;;;21.90;74.00;;;;;;5012944;28;20068;-84
2022/06/23 08:26:43;;;;;;;6.00;3.05;;;22.00;73.70;;;;;;5011201;28;20441;-85
2022/06/23 08:29:14;;;;;;;8.93;2.65;;;22.10;73.50;;;;;;5012216;28;20125;-85
2022/06/23 08:31:40;;;;;;;6.00;2.83;;;22.20;73.40;;;;;;5015252;28;20060;-84
2022/06/23 08:34:06;;;;;;;6.38;2.83;;;22.20;73.20;;;;;;5014754;28;20018;-85
2022/06/23 08:36:50;;;;;;;7.15;3.13;;;22.30;73.10;;;;;;4999142;28;20034;-83
2022/06/23 08:39:30;;;;;;;5.18;2.60;;;22.40;72.90;;;;;;4995572;28;20113;-84
2022/06/23 08:42:16;;;;;;;5.75;2.88;;;22.50;72.90;;;;;;4996206;28;20085;-85
2022/06/23 08:45:01;;;;;;;5.43;2.85;;;22.60;72.70;;;;;;4995043;28;20025;-85
2022/06/23 08:47:48;;;;;;;7.82;3.10;;;22.60;72.60;;;;;;4995678;28;20023;-84
2022/06/23 08:50:23;;;;;;;7.82;2.72;;;22.80;72.40;;;;;;4995025;28;20018;-85
2022/06/23 08:53:01;;;;;;;10.27;3.40;;;22.80;72.50;;;;;;4994672;28;20091;-84
2022/06/23 08:55:47;;;;;;;7.97;3.00;;;22.90;72.30;;;;;;4996526;28;20037;-84
2022/06/23 08:58:46;;;;;;;6.30;3.38;;;23.00;72.20;;;;;;5001319;28;20033;-84
2022/06/23 09:01:17;;;;;;;7.63;3.13;;;23.10;72.20;;;;;;5011950;28;20102;-84
2022/06/23 09:03:43;;;;;;;5.75;2.80;;;23.20;72.00;;;;;;5010947;28;20022;-84
2022/06/23 09:06:45;;;;;;;9.55;3.15;;;23.30;71.90;;;;;;4994179;28;20102;-84
2022/06/23 09:09:29;;;;;;;7.55;3.10;;;23.30;71.80;;;;;;4995512;28;20489;-83
2022/06/23 09:12:04;;;;;;;6.35;3.30;;;23.40;71.70;;;;;;4998590;28;20048;-84
2022/06/23 09:14:51;;;;;;;7.00;3.42;;;23.60;71.70;;;;;;5014804;28;20057;-85
2022/06/23 09:17:31;;;;;;;6.38;3.35;;;23.60;71.60;;;;;;4994034;28;20514;-83
2022/06/23 09:20:16;;;;;;;8.75;4.00;;;23.70;71.50;;;;;;4999561;28;20018;-83
2022/06/23 09:23:11;;;;;;;11.10;4.10;;;23.80;71.40;;;;;;4993909;28;20085;-83
2022/06/23 09:26:04;;;;;;;7.90;3.90;;;23.90;71.10;;;;;;5002472;28;20052;-84
2022/06/23 09:28:40;;;;;;;6.80;3.55;;;24.00;70.90;;;;;;5015098;28;20026;-84
2022/06/23 09:31:43;;;;;;;9.15;4.38;;;24.10;70.90;;;;;;5014362;28;20018;-83
2022/06/23 09:34:27;;;;;;;6.75;3.17;;;24.10;70.80;;;;;;5009407;28;20544;-85
2022/06/23 09:37:03;;;;;;;6.80;3.47;;;24.30;70.80;;;;;;4995361;28;20034;-83
2022/06/23 09:40:06;;;;;;;7.47;2.92;;;24.40;70.70;;;;;;4994840;28;20041;-84
2022/06/23 09:43:00;;;;;;;5.65;2.97;;;24.50;70.40;;;;;;4993437;28;20022;-83
2022/06/23 09:45:58;;;;;;;9.27;3.50;;;24.50;70.20;;;;;;4995729;28;20026;-84
2022/06/23 09:48:58;;;;;;;7.45;2.67;;;24.60;70.00;;;;;;5011769;28;20037;-84
2022/06/23 09:51:47;;;;;;;6.10;2.78;;;24.70;69.90;;;;;;5014961;28;20045;-82
2022/06/23 09:54:55;;;;;;;6.88;3.17;;;24.80;69.80;;;;;;5011606;28;20042;-83
2022/06/23 09:57:56;;;;;;;6.88;2.35;;;25.00;69.60;;;;;;5001694;28;20038;-85
2022/06/23 10:00:51;;;;;;;9.75;2.70;;;25.10;69.40;;;;;;5012940;28;20091;-84
2022/06/23 10:03:35;;;;;;;11.20;2.45;;;25.20;69.20;;;;;;4999943;28;20112;-84
2022/06/23 10:06:19;;;;;;;;;;;25.20;69.00;;;;;;5013493;28;20022;-84
2022/06/23 10:08:58;;;;;;;7.47;2.42;;;25.40;68.90;;;;;;5005437;28;19906;-84
2022/06/23 10:11:54;;;;;;;8.55;2.60;;;25.40;68.60;;;;;;5001531;28;20096;-84
2022/06/23 10:14:26;;;;;;;5.25;2.13;;;25.50;68.30;;;;;;5011669;28;20121;-84
2022/06/23 10:17:00;;;;;;;6.20;1.80;;;25.70;68.30;;;;;;5007015;28;20109;-83
2022/06/23 10:19:47;;;;;;;6.80;2.22;;;25.70;67.90;;;;;;4998432;28;20027;-84
2022/06/23 10:22:30;;;;;;;8.65;2.47;;;25.80;67.70;;;;;;5005187;28;20197;-84
2022/06/23 10:25:07;;;;;;;5.55;1.80;;;25.90;67.60;;;;;;5012050;28;20025;-84
2022/06/23 10:28:01;;;;;;;6.07;2.20;;;26.10;67.20;;;;;;5016583;28;20034;-84
2022/06/23 10:30:42;;;;;;;8.30;1.73;;;26.10;67.10;;;;;;5013331;28;20022;-84
2022/06/23 10:33:25;;;;;;;9.93;2.22;;;26.20;66.90;;;;;;5014118;28;20029;-82
2022/06/23 10:36:12;;;;;;;4.75;1.73;;;26.40;66.50;;;;;;5009761;28;20065;-83
2022/06/23 10:39:00;;;;;;;6.68;2.03;;;26.50;66.00;;;;;;5010231;28;20060;-84
2022/06/23 10:41:54;;;;;;;;;;;;;;;;;;;;;
2022/06/23 10:44:38;;;;;;;;;;;26.80;65.10;;;;;;5014945;28;20045;-82
2022/06/23 10:47:31;;;;;;;5.63;1.45;;;27.00;65.00;;;;;;4992979;28;19928;-84
2022/06/23 10:50:27;;;;;;;6.53;1.60;;;27.20;64.80;;;;;;4994482;28;20172;-85
2022/06/23 10:53:01;;;;;;;6.45;1.55;;;27.50;64.50;;;;;;4991315;28;20088;-84
2022/06/23 10:55:47;;;;;;;7.10;1.73;;;27.70;64.20;;;;;;4990982;28;20030;-83
2022/06/23 10:58:32;;;;;;;6.53;1.60;;;27.90;63.80;;;;;;4992256;28;20041;-84
2022/06/23 11:01:03;;;;;;;4.90;1.48;;;28.20;63.10;;;;;;4991318;28;20015;-84
2022/06/23 11:03:53;;;;;;;5.85;1.60;;;28.50;62.70;;;;;;4992982;28;20026;-84
2022/06/23 11:06:37;;;;;;;6.07;1.50;;;28.70;61.70;;;;;;4993210;28;20113;-84
2022/06/23 11:09:20;;;;;;;4.40;1.20;;;28.90;61.20;;;;;;4993789;28;20023;-84
2022/06/23 11:12:13;;;;;;;4.68;1.45;;;29.20;60.90;;;;;;4992991;28;20117;-83
2022/06/23 11:14:39;;;;;;;5.65;1.52;;;29.40;60.30;;;;;;5010317;28;20084;-84
2022/06/23 11:17:18;;;;;;;4.78;1.50;;;29.70;60.10;;;;;;5011066;28;20045;-85
2022/06/23 11:20:07;;;;;;;5.45;1.67;;;29.90;58.80;;;;;;5012913;28;20018;-84
2022/06/23 11:22:54;;;;;;;6.15;1.70;;;30.30;58.30;;;;;;5012514;28;20022;-84
2022/06/23 11:25:29;;;;;;;5.88;1.92;;;30.50;57.70;;;;;;5013304;28;20033;-86
2022/06/23 11:28:13;;;;;;;3.40;1.40;;;30.60;57.40;;;;;;5012614;28;20462;-84
2022/06/23 11:31:26;;;;;;;5.03;1.70;;;30.80;57.10;;;;;;5012154;28;20026;-83
2022/06/23 11:34:18;;;;;;;7.38;1.92;;;31.00;56.70;;;;;;4998549;28;20030;-84
2022/06/23 11:37:04;;;;;;;6.13;1.50;;;31.30;56.40;;;;;;5013239;28;20034;-83
2022/06/23 11:39:59;;;;;;;8.05;2.50;;;31.50;55.80;;;;;;5011998;28;20240;-81
2022/06/23 11:42:33;;;;;;;5.57;1.63;;;31.80;55.40;;;;;;5013369;28;20030;-83
2022/06/23 11:45:30;;;;;;;6.68;1.70;;;32.00;55.00;;;;;;5013267;28;20026;-83
2022/06/23 11:48:02;;;;;;;6.22;2.15;;;32.30;54.20;;;;;;5013291;28;20018;-82
2022/06/23 11:50:27;;;;;;;8.70;2.20;;;32.50;54.20;;;;;;5011998;28;20025;-83
2022/06/23 11:53:13;;;;;;;8.68;1.90;;;32.70;53.60;;;;;;5013054;28;20026;-83
2022/06/23 11:55:53;;;;;;;5.05;1.25;;;32.90;52.70;;;;;;5011439;28;20033;-83
2022/06/23 11:58:36;;;;;;;12.90;2.15;;;33.20;52.10;;;;;;5011803;28;20470;-82
2022/06/23 12:01:16;;;;;;;7.38;1.52;;;33.40;51.50;;;;;;5013022;28;20065;-82
2022/06/23 12:04:03;;;;;;;7.97;1.88;;;33.60;51.10;;;;;;5012264;28;20022;-83
2022/06/23 12:06:47;;;;;;;8.80;2.00;;;33.90;50.80;;;;;;5015580;28;20014;-83
2022/06/23 12:09:28;;;;;;;9.80;2.13;;;34.00;50.90;;;;;;5014414;28;20014;-83
2022/06/23 12:11:56;;;;;;;7.43;1.60;;;34.30;50.30;;;;;;5015850;28;20059;-84
2022/06/23 12:14:23;;;;;;;4.55;1.92;;;34.50;50.30;;;;;;5014767;28;20026;-83
2022/06/23 12:17:32;;;;;;;7.68;1.77;;;34.70;50.10;;;;;;5015259;28;20400;-83
2022/06/23 12:20:16;;;;;;;9.13;1.90;;;34.90;49.10;;;;;;4958007;28;20038;-83
2022/06/23 12:22:54;;;;;;;6.57;1.70;;;35.10;49.10;;;;;;4988494;28;20537;-83
2022/06/23 12:25:36;;;;;;;6.57;1.40;;;35.30;48.10;;;;;;5015090;28;20061;-83
2022/06/23 12:28:19;;;;;;;4.90;1.48;;;35.40;47.80;;;;;;5015054;28;20018;-83
2022/06/23 12:31:01;;;;;;;5.72;1.30;;;35.70;47.20;;;;;;5015203;28;20021;-83
2022/06/23 12:33:48;;;;;;;4.97;1.20;;;35.80;46.80;;;;;;5002297;28;20569;-83
2022/06/23 12:36:44;;;;;;;4.97;1.35;;;35.90;46.80;;;;;;5014691;28;20030;-82
2022/06/23 12:39:37;;;;;;;7.13;1.90;;;36.10;46.90;;;;;;5016461;28;20050;-82
2022/06/23 12:43:01;;;;;;;7.18;1.63;;;36.30;46.60;;;;;;4997411;28;20115;-82
2022/06/23 12:45:51;;;;;;;6.45;1.50;;;36.40;45.40;;;;;;5006661;28;20108;-83
2022/06/23 12:48:41;;;;;;;8.77;1.50;;;36.50;45.30;;;;;;5016342;28;20458;-83
2022/06/23 12:51:23;;;;;;;7.43;1.58;;;36.60;45.00;;;;;;5014461;28;20022;-81
2022/06/23 12:54:18;;;;;;;8.60;1.33;;;36.80;44.80;;;;;;5015867;28;20463;-82
2022/06/23 12:57:01;;;;;;;5.63;1.38;;;36.90;44.50;;;;;;5014517;28;20030;-82
2022/06/23 12:59:35;;;;;;;9.27;1.67;;;36.90;44.20;;;;;;5014576;28;20062;-83
2022/06/23 13:02:31;;;;;;;5.85;1.35;;;36.80;44.30;;;;;;5015418;28;20018;-83
2022/06/23 13:05:22;;;;;;;7.80;1.55;;;36.50;44.00;;;;;;5014968;28;20022;-83
2022/06/23 13:07:56;;;;;;;6.25;1.20;;;36.40;44.40;;;;;;4998213;28;20026;-83
2022/06/23 13:10:42;;;;;;;6.75;1.45;;;36.50;44.30;;;;;;5013911;28;20061;-82
2022/06/23 13:13:17;;;;;;;8.55;1.55;;;36.40;43.70;;;;;;5013699;28;20033;-82
2022/06/23 13:15:57;;;;;;;6.05;1.48;;;36.50;43.90;;;;;;5015265;28;20057;-83
2022/06/23 13:18:29;;;;;;;10.25;1.33;;;36.70;43.90;;;;;;5013713;28;20160;-82
2022/06/23 13:20:54;;;;;;;8.73;1.90;;;36.80;43.90;;;;;;5015278;28;20025;-84
2022/06/23 13:23:31;;;;;;;8.02;1.23;;;36.90;43.80;;;;;;5008935;28;20022;-82
2022/06/23 13:26:11;;;;;;;9.77;2.08;;;36.90;43.90;;;;;;4994296;28;20018;-83
2022/06/23 13:28:40;;;;;;;5.13;1.25;;;36.90;44.00;;;;;;4978044;28;20031;-82
2022/06/23 13:31:13;;;;;;;8.52;2.03;;;36.90;44.10;;;;;;4994492;28;20019;-82
2022/06/23 13:33:38;;;;;;;8.23;1.52;;;37.00;44.00;;;;;;4994374;28;20069;-82
2022/06/23 13:36:26;;;;;;;5.93;1.45;;;37.00;43.70;;;;;;4995808;28;20406;-83
2022/06/23 13:39:13;;;;;;;4.82;1.33;;;37.00;43.50;;;;;;4991572;28;20486;-82
2022/06/23 13:41:46;;;;;;;7.10;1.48;;;37.00;43.40;;;;;;4995674;28;20026;-82
2022/06/23 13:44:31;;;;;;;5.85;1.42;;;37.10;43.40;;;;;;4996061;28;20366;-82
2022/06/23 13:47:03;;;;;;;6.70;1.58;;;37.10;42.80;;;;;;5003735;28;20096;-83
2022/06/23 13:49:54;;;;;;;6.57;1.65;;;37.00;42.80;;;;;;4996639;28;20029;-82
2022/06/23 13:52:23;;;;;;;9.27;2.38;;;37.20;42.80;;;;;;4997383;28;20105;-82
2022/06/23 13:55:15;;;;;;;7.47;1.92;;;37.40;43.10;;;;;;5009706;28;20069;-82
2022/06/23 13:58:13;;;;;;;6.68;1.60;;;37.60;42.70;;;;;;4973275;28;20490;-83
2022/06/23 14:00:56;;;;;;;5.45;1.63;;;37.70;42.60;;;;;;5009724;28;20044;-83